Terminal Aerodrome Forecast
Issued by NWS

Home | Current Version | Previous Version | Text Only | Print | Product List | Glossary On
Versions: 1 2 3 4 5 6 7 8 9 10 11 12 13 14 15 16 17 18 19 20
271
FTUS44 KSJT 160955 AAB
TAFSOA
TAF AMD
KSOA 160955Z 1610/1706 01020G30KT P6SM BKN035
      TEMPO 1610/1612 P6SM -PLSN
     FM161200 03014G20KT P6SM OVC035
     FM161800 02012KT P6SM OVC050=

USA.gov is the U.S. government's official web portal to all federal, state and local government web resources and services.